Time;durP1;ratioP1;P1;durP2;ratioP2;P2;SDS_P1;SDS_P2;PMS_P1;PMS_P2;Temp;Humidity;BMP_temperature;BMP_pressure;BME280_temperature;BME280_humidity;BME280_pressure;Samples;Min_cycle;Max_cycle;Signal;HPM_P1;HPM_P2
2021/11/26 00:00:59;;;;;;;59.75;23.40;;;;;;;5.18;56.89;94343.81;4990645;28;20026;-73
2021/11/26 00:03:24;;;;;;;64.15;23.92;;;;;;;5.40;55.80;94346.59;4989452;28;20507;-73
2021/11/26 00:05:50;;;;;;;61.28;23.67;;;;;;;5.58;55.59;94325.69;4992439;28;20030;-72
2021/11/26 00:08:15;;;;;;;54.22;23.02;;;;;;;4.85;56.81;94324.56;4988886;28;20387;-72
2021/11/26 00:10:40;;;;;;;63.00;24.35;;;;;;;5.10;56.17;94328.66;4989672;28;20723;-72
2021/11/26 00:13:08;;;;;;;55.53;22.38;;;;;;;4.08;58.53;94324.84;4988574;28;20561;-72
2021/11/26 00:18:05;;;;;;;61.25;23.10;;;;;;;4.61;57.16;94319.41;4990102;28;20460;-72
2021/11/26 00:20:31;;;;;;;65.30;23.77;;;;;;;4.66;57.64;94308.78;4994960;28;20034;-72
2021/11/26 00:22:57;;;;;;;60.58;24.58;;;;;;;5.41;56.01;94294.63;4992871;28;20058;-72
2021/11/26 00:25:22;;;;;;;63.17;22.92;;;;;;;6.01;55.44;94320.19;4993440;28;20066;-75
2021/11/26 00:27:48;;;;;;;79.13;27.00;;;;;;;5.38;55.56;94326.88;4993539;28;20049;-72
2021/11/26 00:30:14;;;;;;;72.38;26.33;;;;;;;5.89;55.09;94304.81;4992934;28;20057;-73
2021/11/26 00:32:40;;;;;;;69.70;27.08;;;;;;;6.16;54.50;94310.09;4991707;28;20121;-73
2021/11/26 00:35:05;;;;;;;65.60;25.02;;;;;;;5.91;54.07;94313.22;4997321;28;20038;-74
2021/11/26 00:37:31;;;;;;;63.03;24.63;;;;;;;6.39;54.19;94312.78;5000147;28;20480;-75
2021/11/26 00:39:56;;;;;;;67.03;25.95;;;;;;;5.79;54.44;94297.09;4991415;28;20125;-75
2021/11/26 00:42:22;;;;;;;55.88;23.98;;;;;;;5.58;54.90;94312.50;4993027;28;20046;-75
2021/11/26 00:44:47;;;;;;;65.43;25.10;;;;;;;5.78;53.92;94298.16;4993256;28;20030;-74
2021/11/26 00:47:13;;;;;;;57.55;23.65;;;;;;;6.12;53.43;94311.75;4993130;28;20077;-74
2021/11/26 00:49:38;;;;;;;61.92;24.10;;;;;;;5.18;54.83;94312.97;4993153;28;20066;-72
2021/11/26 00:52:04;;;;;;;59.38;24.15;;;;;;;5.40;54.67;94298.34;5003035;28;20030;-74
2021/11/26 00:54:29;;;;;;;52.67;21.98;;;;;;;5.14;55.24;94301.44;4991623;28;20030;-74
2021/11/26 00:56:55;;;;;;;51.90;20.27;;;;;;;4.36;57.13;94297.63;4992942;28;20062;-74
2021/11/26 00:59:20;;;;;;;55.72;21.83;;;;;;;3.54;60.64;94302.34;4991260;28;20643;-74
2021/11/26 01:01:45;;;;;;;53.42;21.73;;;;;;;3.88;60.06;94300.34;4992310;28;20038;-73
2021/11/26 01:04:11;;;;;;;50.47;20.52;;;;;;;3.68;60.07;94281.41;4992400;28;20034;-73
2021/11/26 01:06:36;;;;;;;58.78;23.23;;;;;;;4.62;58.63;94302.53;4992501;28;20503;-73
2021/11/26 01:09:03;;;;;;;53.30;21.98;;;;;;;5.23;56.82;94298.91;4992345;28;20031;-74
2021/11/26 01:11:28;;;;;;;61.33;23.52;;;;;;;5.06;56.19;94282.84;4992223;28;20065;-75
2021/11/26 01:13:54;;;;;;;63.75;23.10;;;;;;;5.10;56.34;94279.34;4992529;28;20057;-74
2021/11/26 01:16:19;;;;;;;67.30;23.58;;;;;;;5.15;56.26;94279.25;4992516;28;20065;-73
2021/11/26 01:18:45;;;;;;;56.35;22.77;;;;;;;5.80;55.11;94273.06;4990696;28;20018;-72
2021/11/26 01:21:11;;;;;;;52.45;20.73;;;;;;;5.46;54.64;94266.31;4995564;28;20655;-72
2021/11/26 01:23:37;;;;;;;52.83;20.52;;;;;;;5.09;55.18;94266.47;4991992;28;20018;-73
2021/11/26 01:26:03;;;;;;;56.72;22.40;;;;;;;5.66;54.68;94261.72;4992692;28;20081;-72
2021/11/26 01:28:29;;;;;;;51.65;21.90;;;;;;;4.92;56.00;94253.84;4992760;28;20492;-74
2021/11/26 01:30:54;;;;;;;58.88;22.92;;;;;;;4.74;57.22;94259.94;4991596;28;20018;-73
2021/11/26 01:33:21;;;;;;;56.40;20.80;;;;;;;5.62;55.62;94258.88;4991893;28;20041;-74
2021/11/26 01:35:51;;;;;;;60.58;22.17;;;;;;;5.56;54.93;94257.41;5002255;28;20030;-73
2021/11/26 01:38:16;;;;;;;57.75;22.90;;;;;;;5.66;54.92;94241.38;4993094;28;20036;-74
2021/11/26 01:40:43;;;;;;;57.78;22.42;;;;;;;5.98;53.73;94255.56;4991388;28;20462;-73
2021/11/26 01:43:11;;;;;;;63.88;23.27;;;;;;;5.44;53.92;94243.94;4998204;23;20052;-67
2021/11/26 01:45:45;;;;;;;56.78;21.75;;;;;;;4.49;57.20;94237.41;4991600;28;20040;-67
2021/11/26 01:48:11;;;;;;;59.90;21.83;;;;;;;4.06;58.91;94251.47;4991990;28;20064;-67
2021/11/26 01:50:37;;;;;;;70.20;23.17;;;;;;;4.05;60.09;94241.22;4982915;28;20563;-67
2021/11/26 01:53:03;;;;;;;66.88;23.52;;;;;;;4.29;59.85;94236.63;4973205;28;20440;-67
2021/11/26 01:55:28;;;;;;;68.97;23.48;;;;;;;4.92;57.26;94216.94;4971370;28;20114;-66
2021/11/26 01:57:54;;;;;;;63.47;23.40;;;;;;;5.56;56.46;94220.50;4972164;28;20545;-65
2021/11/26 02:00:26;;;;;;;57.90;20.90;;;;;;;4.44;58.01;94211.94;4970890;28;20039;-67
2021/11/26 02:02:52;;;;;;;61.92;23.98;;;;;;;5.27;56.76;94212.09;4972109;28;20065;-67
2021/11/26 02:05:17;;;;;;;64.88;21.83;;;;;;;5.53;56.19;94193.91;4980682;28;20433;-66
2021/11/26 02:07:43;;;;;;;56.97;22.75;;;;;;;5.31;55.34;94199.88;4977204;28;20061;-66
2021/11/26 02:10:09;;;;;;;66.88;24.48;;;;;;;5.50;55.35;94186.59;4971705;28;20460;-67
2021/11/26 02:12:35;;;;;;;71.78;24.73;;;;;;;5.99;54.98;94162.09;4971605;28;20046;-66
2021/11/26 02:15:01;;;;;;;69.45;23.45;;;;;;;6.01;53.84;94204.81;4971859;28;20053;-66
2021/11/26 02:17:27;;;;;;;55.92;21.52;;;;;;;5.44;54.81;94204.38;4971733;28;20535;-66
2021/11/26 02:19:54;;;;;;;69.07;23.52;;;;;;;5.39;55.94;94207.13;4975166;28;20399;-66
2021/11/26 02:22:20;;;;;;;59.05;21.92;;;;;;;4.95;56.42;94188.16;4971402;28;20031;-67
2021/11/26 02:24:45;;;;;;;62.28;22.38;;;;;;;4.03;59.86;94193.34;4971403;28;20023;-67
2021/11/26 02:27:15;;;;;;;61.88;22.52;;;;;;;3.61;61.31;94205.50;4971521;28;20027;-65
2021/11/26 02:29:41;;;;;;;63.05;21.92;;;;;;;4.43;59.66;94190.09;4970849;28;20027;-67
2021/11/26 02:32:06;;;;;;;70.68;24.45;;;;;;;5.47;57.73;94191.38;4971204;28;20035;-67
2021/11/26 02:34:32;;;;;;;67.05;23.08;;;;;;;5.85;56.67;94183.22;4972554;28;20038;-67
2021/11/26 02:36:57;;;;;;;68.00;24.20;;;;;;;5.53;56.16;94168.34;4978269;28;20062;-65
2021/11/26 02:39:23;;;;;;;81.90;26.85;;;;;;;5.99;55.41;94177.94;4969541;28;20492;-66
2021/11/26 02:41:49;;;;;;;105.20;29.55;;;;;;;6.11;54.83;94172.91;4970743;28;20043;-66
2021/11/26 02:44:15;;;;;;;90.78;25.48;;;;;;;6.04;54.61;94174.38;4969934;28;20049;-66
2021/11/26 02:46:41;;;;;;;84.10;26.30;;;;;;;4.62;57.60;94179.53;4971267;28;20027;-66
2021/11/26 02:49:07;;;;;;;98.03;28.23;;;;;;;5.22;57.05;94181.34;4971066;28;20026;-67
2021/11/26 02:51:33;;;;;;;107.65;28.00;;;;;;;5.08;56.77;94168.16;4974381;28;20392;-67
2021/11/26 02:53:59;;;;;;;95.78;29.23;;;;;;;5.01;57.21;94156.44;4990585;28;20032;-67
2021/11/26 02:56:24;;;;;;;90.72;28.17;;;;;;;5.49;56.25;94164.72;4989510;28;20117;-67
2021/11/26 02:58:50;;;;;;;109.93;29.08;;;;;;;5.43;56.47;94137.69;4990699;28;20031;-67
2021/11/26 03:01:15;;;;;;;103.93;29.13;;;;;;;5.43;56.01;94155.38;4990360;28;20081;-67
2021/11/26 03:03:41;;;;;;;106.32;29.38;;;;;;;4.86;56.55;94134.59;4989218;28;20018;-67
2021/11/26 03:06:06;;;;;;;120.32;29.40;;;;;;;4.07;59.00;94123.28;4980481;28;20472;-67
2021/11/26 03:08:33;;;;;;;104.80;28.50;;;;;;;4.34;59.00;94114.69;4969864;28;20030;-67
2021/11/26 03:11:01;;;;;;;100.72;29.08;;;;;;;4.73;58.52;94137.97;4969313;28;20070;-67
2021/11/26 03:13:27;;;;;;;118.57;30.30;;;;;;;4.98;57.91;94131.44;4969457;28;20081;-67
2021/11/26 03:15:53;;;;;;;104.20;30.58;;;;;;;5.58;57.30;94133.13;4969927;28;20035;-66
2021/11/26 03:18:19;;;;;;;96.97;29.35;;;;;;;5.95;56.70;94130.25;4971067;28;20042;-66
2021/11/26 03:20:46;;;;;;;83.85;28.30;;;;;;;6.29;55.71;94138.69;4974605;28;20748;-66
2021/11/26 03:23:12;;;;;;;89.35;29.73;;;;;;;6.50;55.29;94131.84;4970753;28;20062;-65
2021/11/26 03:25:40;;;;;;;120.63;31.10;;;;;;;6.38;54.50;94121.06;4969437;28;20050;-66
2021/11/26 03:28:06;;;;;;;116.43;29.05;;;;;;;5.90;54.51;94119.78;4970121;28;20118;-66
2021/11/26 03:30:32;;;;;;;101.97;30.48;;;;;;;5.37;55.70;94103.78;4969523;28;20138;-66
2021/11/26 03:32:57;;;;;;;127.25;31.25;;;;;;;5.95;54.66;94119.69;4970936;28;20034;-66
2021/11/26 03:35:24;;;;;;;119.57;33.10;;;;;;;6.12;55.33;94107.69;4974369;28;20034;-65
2021/11/26 03:37:49;;;;;;;91.78;29.42;;;;;;;6.51;54.50;94105.13;4975155;28;20034;-65
2021/11/26 03:40:18;;;;;;;92.78;29.08;;;;;;;6.69;53.97;94103.34;4970778;28;20035;-65
2021/11/26 03:42:44;;;;;;;94.03;28.38;;;;;;;6.33;53.32;94110.59;4970353;28;20038;-66
2021/11/26 03:45:10;;;;;;;112.50;31.80;;;;;;;6.42;53.20;94083.16;4970656;28;20100;-66
2021/11/26 03:47:36;;;;;;;130.27;34.35;;;;;;;6.45;53.81;94073.88;4969258;28;20410;-65
2021/11/26 03:50:04;;;;;;;114.60;30.15;;;;;;;6.30;53.41;94082.19;4972224;28;20161;-65
2021/11/26 03:52:29;;;;;;;99.88;29.63;;;;;;;5.84;54.13;94075.34;4973439;28;20042;-65
2021/11/26 03:54:55;;;;;;;81.03;28.55;;;;;;;5.39;54.73;94065.50;4971636;28;20031;-66
2021/11/26 03:57:20;;;;;;;69.40;25.45;;;;;;;4.72;57.30;94075.06;4974399;28;20027;-66
2021/11/26 03:59:45;;;;;;;75.10;25.15;;;;;;;5.03;57.59;94062.84;4972465;28;20027;-66
2021/11/26 04:02:11;;;;;;;95.53;27.10;;;;;;;4.24;59.43;94062.22;4972668;28;20023;-66
2021/11/26 04:04:37;;;;;;;90.65;28.95;;;;;;;5.17;57.84;94060.97;4975740;28;20053;-67
2021/11/26 04:07:02;;;;;;;92.85;29.35;;;;;;;5.48;56.72;94071.63;4977610;28;20106;-66
2021/11/26 04:09:28;;;;;;;73.32;23.88;;;;;;;3.86;59.42;94055.22;4973398;28;20082;-67
2021/11/26 04:11:54;;;;;;;93.28;27.25;;;;;;;4.07;60.56;94081.97;4973767;28;20031;-67
2021/11/26 04:14:20;;;;;;;106.75;30.65;;;;;;;4.76;59.04;94089.97;4973931;28;20031;-66
2021/11/26 04:16:47;;;;;;;87.05;28.63;;;;;;;4.31;59.01;94067.91;4974058;28;20395;-66
2021/11/26 04:19:13;;;;;;;82.10;26.73;;;;;;;3.88;59.77;94062.81;4973313;28;20465;-66
2021/11/26 04:21:38;;;;;;;85.65;27.02;;;;;;;3.54;61.76;94077.00;4974489;28;20049;-65
2021/11/26 04:24:04;;;;;;;100.40;28.95;;;;;;;4.08;60.13;94070.38;4972363;28;20019;-66
2021/11/26 04:26:30;;;;;;;87.28;27.80;;;;;;;4.72;59.38;94088.22;4973661;28;20477;-66
2021/11/26 04:28:56;;;;;;;88.55;28.40;;;;;;;5.08;58.01;94075.13;4972214;28;20018;-66
2021/11/26 04:31:21;;;;;;;87.80;27.48;;;;;;;5.20;57.66;94075.41;4971872;28;20058;-67
2021/11/26 04:33:48;;;;;;;77.00;26.05;;;;;;;5.45;56.43;94071.44;4973473;28;20074;-66
2021/11/26 04:36:14;;;;;;;82.88;27.73;;;;;;;4.72;57.41;94067.16;4976338;28;20029;-65
2021/11/26 04:38:40;;;;;;;90.18;28.27;;;;;;;4.83;58.54;94065.88;4973215;28;20022;-67
2021/11/26 04:41:06;;;;;;;82.07;27.50;;;;;;;4.98;57.76;94070.06;4972944;28;20023;-67
2021/11/26 04:43:31;;;;;;;92.20;28.15;;;;;;;4.79;58.48;94063.03;4973160;28;20397;-66
2021/11/26 04:45:57;;;;;;;76.95;25.98;;;;;;;4.44;59.03;94056.59;4973405;28;20038;-66
2021/11/26 04:48:24;;;;;;;80.00;26.58;;;;;;;3.84;60.69;94069.72;4973254;28;20046;-66
2021/11/26 04:50:50;;;;;;;109.63;27.25;;;;;;;3.84;60.81;94069.72;4975298;28;20030;-66
2021/11/26 04:53:16;;;;;;;119.90;28.10;;;;;;;3.73;61.68;94063.81;4974011;28;20460;-67
2021/11/26 04:55:42;;;;;;;106.38;29.83;;;;;;;4.72;59.81;94075.06;4973150;28;20030;-66
2021/11/26 04:58:08;;;;;;;122.72;29.55;;;;;;;3.79;61.45;94078.47;4973096;28;20062;-66
2021/11/26 05:00:33;;;;;;;125.47;32.08;;;;;;;4.15;61.01;94060.25;4972785;28;20031;-67
2021/11/26 05:02:59;;;;;;;164.52;29.38;;;;;;;2.82;65.19;94068.50;4972679;28;20042;-66
2021/11/26 05:05:24;;;;;;;134.05;32.17;;;;;;;3.63;63.47;94063.97;4971572;28;20034;-65
2021/11/26 05:07:50;;;;;;;144.27;31.27;;;;;;;3.36;63.70;94038.34;4976517;28;20113;-66
2021/11/26 05:10:19;;;;;;;130.18;32.85;;;;;;;4.32;61.82;94058.91;4972723;28;20464;-67
2021/11/26 05:12:54;;;;;;;146.45;31.00;;;;;;;3.34;62.93;94027.34;4972716;28;20027;-66
2021/11/26 05:15:26;;;;;;;165.93;34.20;;;;;;;3.90;62.31;94029.13;4973145;28;20150;-66
2021/11/26 05:18:03;;;;;;;122.20;34.08;;;;;;;4.55;60.62;94034.25;4973056;28;20026;-67
2021/11/26 05:20:31;;;;;;;112.60;31.25;;;;;;;4.23;61.73;94034.34;4975545;28;20397;-68
2021/11/26 05:22:57;;;;;;;105.05;29.80;;;;;;;3.55;62.26;94025.97;4974787;28;20030;-66
2021/11/26 05:25:23;;;;;;;111.20;30.58;;;;;;;3.94;61.64;94034.56;4972909;28;20080;-67
2021/11/26 05:27:49;;;;;;;93.50;25.15;;;;;;;2.97;63.45;94033.38;4971600;28;20678;-68
2021/11/26 05:30:15;;;;;;;109.15;28.02;;;;;;;3.71;62.30;94038.88;4972606;28;20031;-67
2021/11/26 05:32:41;;;;;;;101.45;29.65;;;;;;;4.35;61.29;94018.84;4972104;28;20034;-67
2021/11/26 05:35:08;;;;;;;97.30;28.52;;;;;;;4.59;59.79;94027.31;4972465;28;20528;-65
2021/11/26 05:37:34;;;;;;;124.05;31.60;;;;;;;4.62;59.74;94029.38;4975979;28;20030;-67
2021/11/26 05:39:59;;;;;;;103.13;29.00;;;;;;;4.84;58.18;94039.22;4972036;28;20022;-66
2021/11/26 05:42:25;;;;;;;109.07;30.02;;;;;;;4.78;58.64;94029.88;4972030;28;20118;-66
2021/11/26 05:44:50;;;;;;;93.47;28.75;;;;;;;5.17;58.27;94018.00;4972315;28;20027;-66
2021/11/26 05:47:16;;;;;;;90.47;28.02;;;;;;;3.89;60.66;94030.19;4972226;28;20055;-66
2021/11/26 05:49:41;;;;;;;101.78;30.42;;;;;;;4.65;58.74;94036.69;4971490;28;20476;-66
2021/11/26 05:52:06;;;;;;;99.35;31.05;;;;;;;5.05;58.42;94021.13;4977116;28;20023;-66
2021/11/26 05:54:32;;;;;;;96.82;28.17;;;;;;;4.90;58.12;94024.09;4975766;28;20035;-67
2021/11/26 05:56:58;;;;;;;88.32;24.80;;;;;;;3.92;59.83;94019.84;4971999;28;20038;-67
2021/11/26 05:59:23;;;;;;;95.57;27.63;;;;;;;4.07;60.65;94016.19;4971714;28;20082;-68
2021/11/26 06:01:48;;;;;;;102.90;30.17;;;;;;;4.61;60.11;94027.84;4972098;28;20037;-68
2021/11/26 06:04:14;;;;;;;96.95;30.05;;;;;;;4.85;58.93;94024.19;4972160;28;20461;-68
2021/11/26 06:06:40;;;;;;;91.65;27.30;;;;;;;4.28;60.18;94023.72;4976951;28;20101;-67
2021/11/26 06:09:06;;;;;;;98.07;30.02;;;;;;;4.68;59.21;94020.31;4976334;28;20027;-69
2021/11/26 06:11:31;;;;;;;102.00;30.98;;;;;;;5.14;58.26;94027.28;4973074;28;20031;-68
2021/11/26 06:13:56;;;;;;;88.43;28.77;;;;;;;4.82;58.08;94014.25;4972356;28;20511;-68
2021/11/26 06:16:22;;;;;;;83.32;25.83;;;;;;;3.66;61.68;94018.72;4973015;28;20038;-70
2021/11/26 06:18:47;;;;;;;97.10;27.65;;;;;;;4.45;59.61;94005.47;4973914;28;20065;-65
2021/11/26 06:21:13;;;;;;;101.00;28.67;;;;;;;4.12;59.65;93981.88;4977663;28;20062;-66
2021/11/26 06:23:38;;;;;;;94.75;26.63;;;;;;;3.44;62.71;94003.53;4974396;28;20039;-67
2021/11/26 06:26:03;;;;;;;97.68;30.10;;;;;;;4.68;59.93;94009.78;4971823;28;20030;-74
2021/11/26 06:28:29;;;;;;;96.43;25.80;;;;;;;3.89;61.17;93994.13;4971111;28;20499;-64
2021/11/26 06:30:54;;;;;;;92.32;26.13;;;;;;;3.91;60.78;93994.63;4972843;28;20050;-66
2021/11/26 06:33:20;;;;;;;90.22;27.08;;;;;;;4.47;59.79;93978.88;4972223;28;20113;-63
2021/11/26 06:35:45;;;;;;;92.40;26.98;;;;;;;4.51;59.28;93985.91;4972260;28;20027;-68
2021/11/26 06:38:10;;;;;;;83.00;27.58;;;;;;;4.70;58.89;93962.06;4975933;28;20022;-66
2021/11/26 06:40:37;;;;;;;80.07;23.33;;;;;;;4.72;57.64;93988.13;4971313;28;20496;-65
2021/11/26 06:43:02;;;;;;;83.90;26.70;;;;;;;5.12;57.80;93971.44;4970872;28;20200;-65
2021/11/26 06:45:27;;;;;;;75.15;22.77;;;;;;;4.64;57.94;93981.69;4969799;28;20027;-66
2021/11/26 06:47:53;;;;;;;68.45;22.50;;;;;;;4.18;59.37;93990.47;4971200;28;20705;-68
2021/11/26 06:50:19;;;;;;;84.78;23.35;;;;;;;4.20;59.27;93983.06;4970231;28;20026;-68
2021/11/26 06:52:45;;;;;;;74.30;23.73;;;;;;;4.02;60.24;93987.31;4971835;28;20030;-67
2021/11/26 06:55:12;;;;;;;74.32;23.88;;;;;;;4.45;59.22;93989.69;4972819;28;20118;-67
2021/11/26 06:57:40;;;;;;;68.38;22.75;;;;;;;4.68;58.64;93956.31;4971654;28;20030;-66
2021/11/26 07:00:08;;;;;;;71.95;23.67;;;;;;;4.33;59.27;93984.91;4970758;28;20391;-68
2021/11/26 07:02:33;;;;;;;70.53;24.15;;;;;;;3.84;61.41;93962.66;4971288;28;20065;-66
2021/11/26 07:05:00;;;;;;;76.15;24.38;;;;;;;3.31;63.05;93978.75;4969526;28;20055;-66
2021/11/26 07:07:25;;;;;;;62.72;20.77;;;;;;;3.43;62.17;93965.19;4976301;28;20034;-67
2021/11/26 07:09:51;;;;;;;62.85;21.88;;;;;;;3.33;62.20;93958.25;4968985;28;20027;-68
2021/11/26 07:12:16;;;;;;;73.45;22.95;;;;;;;4.25;61.01;93964.56;4969008;28;20034;-69
2021/11/26 07:14:44;;;;;;;64.63;21.58;;;;;;;3.51;62.02;93967.16;4969498;28;20049;-68
2021/11/26 07:17:11;;;;;;;63.10;20.58;;;;;;;3.63;62.68;93967.50;4970515;28;20090;-69
2021/11/26 07:19:38;;;;;;;65.97;21.05;;;;;;;4.03;60.84;93941.50;4970282;28;20109;-62
2021/11/26 07:22:05;;;;;;;65.05;21.67;;;;;;;4.58;58.93;93957.31;4972736;28;20065;-62
2021/11/26 07:24:30;;;;;;;58.65;22.50;;;;;;;4.57;59.04;93950.47;4974132;28;20035;-61
2021/11/26 07:26:56;;;;;;;62.83;21.42;;;;;;;4.99;57.05;93953.81;4968479;28;20031;-61
2021/11/26 07:29:21;;;;;;;65.38;21.20;;;;;;;4.73;58.76;93958.84;4970261;28;20031;-61
2021/11/26 07:31:47;;;;;;;68.47;22.05;;;;;;;4.52;59.33;93965.59;4974249;28;20042;-61
2021/11/26 07:34:12;;;;;;;71.18;22.55;;;;;;;4.75;57.98;93942.72;4974488;28;20073;-61
2021/11/26 07:36:37;;;;;;;73.30;22.25;;;;;;;4.68;57.91;93954.47;4976354;28;20058;-69
2021/11/26 07:39:03;;;;;;;70.78;23.48;;;;;;;5.22;56.96;93952.78;4976515;28;20127;-69
2021/11/26 07:41:29;;;;;;;73.10;22.75;;;;;;;5.89;56.49;93930.84;4974587;28;20085;-69
2021/11/26 07:43:54;;;;;;;62.70;21.55;;;;;;;6.01;55.05;93961.19;4974796;28;20039;-70
2021/11/26 07:46:20;;;;;;;64.70;21.20;;;;;;;5.96;54.25;93952.31;4975225;28;20042;-69
2021/11/26 07:48:45;;;;;;;63.17;20.90;;;;;;;4.73;56.91;93955.44;4975060;28;20038;-68
2021/11/26 07:51:11;;;;;;;63.90;21.15;;;;;;;4.53;58.21;93948.72;4974768;28;20121;-69
2021/11/26 07:53:36;;;;;;;62.20;23.10;;;;;;;5.44;56.12;93938.03;4974092;28;20781;-70
2021/11/26 07:56:02;;;;;;;69.10;22.38;;;;;;;5.35;56.04;93963.53;4974105;28;20037;-67
2021/11/26 07:58:27;;;;;;;65.43;22.67;;;;;;;4.00;59.09;93947.38;4974235;28;20045;-71
2021/11/26 08:00:53;;;;;;;59.35;22.50;;;;;;;4.94;56.87;93953.91;4973688;28;20037;-66
2021/11/26 08:03:21;;;;;;;63.15;22.80;;;;;;;4.79;56.67;93956.88;4973663;28;20082;-66
2021/11/26 08:05:46;;;;;;;60.95;22.42;;;;;;;3.94;59.16;93953.00;4975020;28;20102;-70
2021/11/26 08:08:12;;;;;;;63.10;22.85;;;;;;;3.83;60.08;93947.94;4975974;28;20130;-67
2021/11/26 08:10:38;;;;;;;64.65;22.25;;;;;;;3.61;60.61;93938.06;4973487;28;20022;-70
2021/11/26 08:13:05;;;;;;;65.70;22.40;;;;;;;3.41;61.72;93935.75;4973538;28;20049;-70
2021/11/26 08:15:32;;;;;;;74.15;23.27;;;;;;;3.11;62.14;93929.13;4974073;28;20101;-67
2021/11/26 08:17:59;;;;;;;67.85;23.83;;;;;;;3.51;61.52;93917.19;4973950;28;20050;-62
2021/11/26 08:20:25;;;;;;;65.60;23.65;;;;;;;3.71;61.52;93913.44;4973639;28;20038;-66
2021/11/26 08:22:50;;;;;;;70.18;22.27;;;;;;;3.57;61.18;93896.84;4974225;28;20027;-68
2021/11/26 08:25:19;;;;;;;66.35;23.08;;;;;;;4.60;59.17;93905.09;4973811;28;20034;-63
2021/11/26 08:27:46;;;;;;;68.00;24.17;;;;;;;3.85;60.24;93900.31;4974121;28;20037;-68
2021/11/26 08:30:12;;;;;;;65.28;23.00;;;;;;;3.55;61.84;93891.13;4973594;28;20034;-72
2021/11/26 08:32:37;;;;;;;68.28;23.60;;;;;;;3.94;60.59;93895.91;4973256;28;20035;-68
2021/11/26 08:35:03;;;;;;;73.03;25.38;;;;;;;3.72;61.55;93895.81;4973556;28;20110;-66
2021/11/26 08:37:29;;;;;;;73.68;24.77;;;;;;;3.34;62.35;93878.31;4976910;28;20035;-66
2021/11/26 08:39:55;;;;;;;76.57;26.10;;;;;;;3.83;61.32;93889.28;4971862;28;20042;-69
2021/11/26 08:42:20;;;;;;;82.38;24.65;;;;;;;3.98;60.32;93865.31;4971195;28;20046;-69
2021/11/26 08:44:46;;;;;;;68.30;23.27;;;;;;;3.86;60.00;93860.53;4973447;28;20039;-67
2021/11/26 08:47:11;;;;;;;76.63;26.05;;;;;;;4.53;59.56;93867.88;4973266;28;20125;-66
2021/11/26 08:49:37;;;;;;;73.35;24.27;;;;;;;3.91;60.46;93875.47;4971836;28;20105;-70
2021/11/26 08:52:03;;;;;;;70.18;22.98;;;;;;;3.44;62.04;93871.34;4979752;28;20384;-68
2021/11/26 08:54:28;;;;;;;78.88;25.80;;;;;;;3.86;61.35;93878.97;4976725;28;20031;-65
2021/11/26 08:56:56;;;;;;;84.65;27.20;;;;;;;4.48;60.43;93880.38;4973024;28;20035;-68
2021/11/26 08:59:23;;;;;;;79.15;25.55;;;;;;;4.08;60.40;93890.66;4972953;28;20035;-68
2021/11/26 09:01:50;;;;;;;88.07;28.67;;;;;;;4.28;60.76;93898.13;4972737;28;20039;-66
2021/11/26 09:04:17;;;;;;;85.90;28.77;;;;;;;5.28;59.09;93887.50;4972970;28;20520;-66
2021/11/26 09:06:43;;;;;;;81.38;26.95;;;;;;;5.57;57.07;93908.16;4977306;28;20496;-68
2021/11/26 09:09:08;;;;;;;76.78;25.65;;;;;;;6.12;56.28;93894.63;4977816;28;20098;-68
2021/11/26 09:11:34;;;;;;;76.18;25.98;;;;;;;5.13;57.23;93903.69;4972544;28;20038;-67
2021/11/26 09:14:00;;;;;;;76.47;25.80;;;;;;;5.57;57.47;93902.88;4972801;28;20066;-67
2021/11/26 09:16:26;;;;;;;64.65;23.60;;;;;;;6.36;56.32;93907.44;4972885;28;20019;-67
2021/11/26 09:18:51;;;;;;;64.63;24.23;;;;;;;5.67;56.49;93893.91;4972711;28;20035;-67
2021/11/26 09:21:17;;;;;;;55.53;21.85;;;;;;;5.33;55.81;93903.22;4973447;28;20031;-68
2021/11/26 09:23:43;;;;;;;55.90;21.60;;;;;;;4.36;58.46;93889.56;4976582;28;20373;-67
2021/11/26 09:26:09;;;;;;;51.55;19.95;;;;;;;3.82;59.97;93903.50;4973273;28;20109;-66
2021/11/26 09:28:35;;;;;;;60.53;22.55;;;;;;;3.62;61.09;93899.38;4973186;28;20101;-69
2021/11/26 09:31:01;;;;;;;57.92;20.88;;;;;;;3.57;60.81;93897.63;4972285;28;20180;-66
2021/11/26 09:33:33;;;;;;;63.22;23.75;;;;;;;4.53;59.05;93888.94;4972091;28;20106;-68
2021/11/26 09:35:58;;;;;;;53.92;20.90;;;;;;;3.62;59.91;93873.88;4974101;28;20027;-68
2021/11/26 09:38:23;;;;;;;57.42;20.05;;;;;;;3.79;60.46;93877.81;4975918;28;20535;-69
2021/11/26 09:40:50;;;;;;;57.63;21.55;;;;;;;3.77;61.14;93882.56;4975493;28;20040;-69
2021/11/26 09:43:15;;;;;;;59.75;23.10;;;;;;;5.15;58.02;93860.13;4971832;28;20105;-68
2021/11/26 09:45:41;;;;;;;50.83;20.10;;;;;;;4.60;58.58;93855.06;4972287;28;20484;-68
2021/11/26 09:48:07;;;;;;;50.20;19.75;;;;;;;5.26;57.41;93849.34;4972379;28;20535;-69
2021/11/26 09:50:33;;;;;;;45.90;19.48;;;;;;;4.44;58.08;93856.47;4971851;28;20030;-68
2021/11/26 09:53:21;;;;;;;51.58;20.27;;;;;;;4.35;58.57;93855.63;4974361;28;20033;-68
2021/11/26 09:55:49;;;;;;;43.35;18.30;;;;;;;4.42;58.14;93848.09;4982530;28;20122;-69
2021/11/26 09:58:16;;;;;;;51.67;20.17;;;;;;;4.88;57.03;93839.19;4972207;28;20030;-68
2021/11/26 10:00:42;;;;;;;49.83;19.20;;;;;;;3.94;59.49;93818.84;4972230;28;20034;-68
2021/11/26 10:03:07;;;;;;;43.08;19.63;;;;;;;4.04;59.31;93805.47;4972770;28;20444;-69
2021/11/26 10:05:35;;;;;;;47.50;20.25;;;;;;;4.85;58.33;93816.84;4972743;28;20111;-68
2021/11/26 10:08:01;;;;;;;47.63;18.73;;;;;;;4.39;58.42;93801.31;4976076;28;20022;-68
2021/11/26 10:10:33;;;;;;;50.38;20.08;;;;;;;5.02;57.42;93810.13;4971347;28;20022;-69
2021/11/26 10:13:08;;;;;;;46.33;19.67;;;;;;;5.17;57.26;93807.13;4971475;28;20034;-68
2021/11/26 10:15:45;;;;;;;44.17;18.63;;;;;;;5.18;57.34;93798.91;4971773;28;20485;-68
2021/11/26 10:18:15;;;;;;;48.10;19.38;;;;;;;5.86;55.85;93788.16;4970661;28;20086;-68
2021/11/26 10:21:03;;;;;;;49.10;18.25;;;;;;;5.35;56.44;93794.81;4970193;28;20400;-70
2021/11/26 10:23:32;;;;;;;41.90;16.70;;;;;;;4.44;58.06;93777.50;4985851;28;20510;-70
2021/11/26 10:26:10;;;;;;;47.35;19.33;;;;;;;4.89;57.45;93780.91;4975426;28;20078;-72
2021/11/26 10:28:41;;;;;;;40.33;17.65;;;;;;;4.10;59.91;93773.50;4952265;28;20023;-71
2021/11/26 10:31:06;;;;;;;45.88;19.67;;;;;;;4.49;58.55;93777.38;4950896;28;20383;-73
2021/11/26 10:33:34;;;;;;;54.92;21.23;;;;;;;5.38;57.48;93767.84;4952001;28;20051;-70
2021/11/26 10:36:01;;;;;;;49.63;18.33;;;;;;;4.70;56.17;93749.47;4951208;28;20481;-67
2021/11/26 10:38:27;;;;;;;50.38;19.65;;;;;;;5.41;56.35;93767.22;4971019;28;20026;-70
2021/11/26 10:40:59;;;;;;;50.97;20.13;;;;;;;4.88;57.07;93766.19;4970820;28;20119;-70
2021/11/26 10:43:40;;;;;;;48.15;18.80;;;;;;;4.29;58.34;93754.16;4971089;28;20104;-69
2021/11/26 11:00:10;;;;;;;51.22;18.88;;;;;;;5.61;55.99;93724.47;4970928;28;20065;-66
2021/11/26 11:02:39;;;;;;;46.38;19.38;;;;;;;5.63;55.42;93730.22;4971668;28;20512;-71
2021/11/26 11:05:10;;;;;;;48.65;19.42;;;;;;;5.52;55.99;93699.91;4971320;28;20651;-70
2021/11/26 11:07:44;;;;;;;53.30;19.37;;;;;;;6.42;53.65;93725.81;4972257;28;20719;-70
2021/11/26 11:10:35;;;;;;;39.13;17.83;;;;;;;5.73;55.68;93708.03;4969038;28;20078;-69
2021/11/26 11:13:28;;;;;;;39.85;17.95;;;;;;;6.51;53.55;93708.09;4970754;28;20031;-70
2021/11/26 11:16:04;;;;;;;36.38;16.27;;;;;;;5.89;54.87;93717.06;4967874;28;20043;-69
2021/11/26 11:18:30;;;;;;;39.53;17.55;;;;;;;5.84;54.78;93701.38;4970863;28;20492;-70
2021/11/26 11:20:55;;;;;;;39.50;16.90;;;;;;;6.87;53.18;93705.09;4970520;28;20023;-71
2021/11/26 11:23:21;;;;;;;31.23;13.68;;;;;;;4.09;58.28;93702.75;4979172;28;20042;-70
2021/11/26 11:25:46;;;;;;;33.17;15.57;;;;;;;5.23;56.67;93697.84;4975521;28;20094;-68
2021/11/26 11:28:12;;;;;;;33.78;15.10;;;;;;;4.55;56.84;93684.00;4970661;28;20034;-68
2021/11/26 11:30:40;;;;;;;31.00;14.27;;;;;;;4.87;57.23;93703.25;4970403;28;20037;-68
2021/11/26 11:33:05;;;;;;;30.75;14.55;;;;;;;4.00;59.59;93688.75;4970203;28;20485;-68
2021/11/26 11:35:33;;;;;;;36.42;16.23;;;;;;;5.25;56.64;93671.94;4969172;28;20047;-69
2021/11/26 11:38:00;;;;;;;38.88;15.75;;;;;;;4.03;59.54;93675.78;4975378;28;20720;-69